Rexmere, Louisiana
Current Conditions -  °F | °C
As of 2:53 PM on Friday 31 Oct 2014 (Local Time) from KESF Reporting Station
Clear Clear  
Wind Chill: 71°   Ceiling: Unl
Heat Index: 71°   Visibility: 10mi
Dew Point: 48°   Wind: 12mph
Humidity: 44%   Direction: 320°NW
Pressure: 30.11"   Gusts: 20mph
Location:  31.0386°N, 91.9871°W
Report Text: KESF 311953Z AUTO 32010G17KT 10SM CLR 22/09 A3011 RMK AO2 SLP195 T02170089
Loading
Personal Weather Stations






























Interactive Weather Map
Tropical Storm Tracking
New forecast layout! Learn more

10-Day Weather Forecast

Advertisements
Track Severe Weather on mobile